createdAt,value
2019-03-01T00:01:17.060Z,11.00
2019-03-01T00:04:03.493Z,11.13
2019-03-01T00:07:38.411Z,11.60
2019-03-01T00:11:14.324Z,11.33
2019-03-01T00:14:37.417Z,11.17
2019-03-01T00:18:08.704Z,10.13
2019-03-01T00:21:14.050Z,10.40
2019-03-01T00:24:20.804Z,10.47
2019-03-01T00:27:10.385Z,9.77
2019-03-01T00:30:32.326Z,9.40
2019-03-01T00:34:05.864Z,9.50
2019-03-01T00:37:02.127Z,9.20
2019-03-01T00:40:06.851Z,9.77
2019-03-01T00:43:27.702Z,10.00
2019-03-01T00:45:59.543Z,10.73
2019-03-01T00:48:31.371Z,11.17
2019-03-01T00:51:03.163Z,10.80
2019-03-01T00:53:35.008Z,10.33
2019-03-01T00:56:06.824Z,10.90
2019-03-01T00:58:38.632Z,11.00
2019-03-01T01:01:10.459Z,10.67
2019-03-01T01:03:42.291Z,10.90
2019-03-01T01:06:15.058Z,10.60
2019-03-01T01:08:46.889Z,10.27
2019-03-01T01:11:18.741Z,10.70
2019-03-01T01:13:50.614Z,10.60
2019-03-01T01:16:22.468Z,9.63
2019-03-01T01:18:54.286Z,9.50
2019-03-01T01:21:26.114Z,10.27
2019-03-01T01:23:57.940Z,9.93
2019-03-01T01:26:29.779Z,10.60
2019-03-01T01:29:01.653Z,10.07
2019-03-01T01:31:33.478Z,11.17
2019-03-01T01:34:05.300Z,12.27
2019-03-01T01:36:37.151Z,13.87
2019-03-01T01:39:10.735Z,13.30
2019-03-01T01:41:42.579Z,14.37
2019-03-01T01:44:14.406Z,13.90
2019-03-01T01:46:46.244Z,13.67
2019-03-01T01:49:19.050Z,13.47
2019-03-01T01:51:50.991Z,12.93
2019-03-01T01:54:22.899Z,12.33
2019-03-01T01:56:54.709Z,12.20
2019-03-01T01:59:26.514Z,12.43
2019-03-01T02:01:58.337Z,12.40
2019-03-01T02:04:30.192Z,12.43
2019-03-01T02:07:02.008Z,12.67
2019-03-01T02:09:34.016Z,12.73
2019-03-01T02:12:05.862Z,12.73
2019-03-01T02:14:37.710Z,13.20
2019-03-01T02:17:09.595Z,12.77
2019-03-01T02:19:41.414Z,12.13
2019-03-01T02:22:13.269Z,12.07
2019-03-01T02:24:45.201Z,12.57
2019-03-01T02:27:26.218Z,11.63
2019-03-01T02:29:59.199Z,12.23
2019-03-01T02:32:50.565Z,12.20
2019-03-01T02:35:31.310Z,12.20
2019-03-01T02:38:03.134Z,11.57
2019-03-01T02:40:39.425Z,11.87
2019-03-01T02:43:11.226Z,12.33
2019-03-01T02:45:43.097Z,12.80
2019-03-01T02:48:14.977Z,13.27
2019-03-01T02:50:46.787Z,13.03
2019-03-01T02:53:18.659Z,13.33
2019-03-01T02:55:50.463Z,14.23
2019-03-01T02:58:22.302Z,13.40
2019-03-01T03:00:54.260Z,13.37
2019-03-01T03:03:26.124Z,14.30
2019-03-01T03:06:08.689Z,14.10
2019-03-01T03:08:40.570Z,14.30
2019-03-01T03:11:12.427Z,14.20
2019-03-01T03:13:44.313Z,14.37
2019-03-01T03:16:16.214Z,14.00
2019-03-01T03:18:48.062Z,14.23
2019-03-01T03:21:19.917Z,14.53
2019-03-01T03:23:51.787Z,14.87
2019-03-01T03:26:23.639Z,14.70
2019-03-01T03:28:55.495Z,14.80
2019-03-01T03:31:27.188Z,15.60
2019-03-01T03:33:59.047Z,16.47
2019-03-01T03:36:30.950Z,16.37
2019-03-01T03:39:02.769Z,15.80
2019-03-01T03:41:34.716Z,16.80
2019-03-01T03:44:06.580Z,16.37
2019-03-01T03:46:38.424Z,15.80
2019-03-01T03:49:10.299Z,17.40
2019-03-01T03:51:42.176Z,16.93
2019-03-01T03:54:14.032Z,16.83
2019-03-01T03:56:45.933Z,17.17
2019-03-01T03:59:17.752Z,16.17
2019-03-01T04:01:49.627Z,16.50
2019-03-01T04:04:21.442Z,17.40
2019-03-01T04:06:53.313Z,16.20
2019-03-01T04:09:25.173Z,16.73
2019-03-01T04:11:57.027Z,15.83
2019-03-01T04:14:28.990Z,16.73
2019-03-01T04:17:00.840Z,16.13
2019-03-01T04:19:32.670Z,14.83
2019-03-01T04:22:04.575Z,14.47
2019-03-01T04:24:36.368Z,15.33
2019-03-01T04:27:08.248Z,14.83
2019-03-01T04:29:40.158Z,15.80
2019-03-01T04:32:11.963Z,15.77
2019-03-01T04:34:43.784Z,15.50
2019-03-01T04:37:15.698Z,15.47
2019-03-01T04:39:47.556Z,16.57
2019-03-01T04:42:19.364Z,16.03
2019-03-01T04:44:51.243Z,17.03
2019-03-01T04:47:23.081Z,17.07
2019-03-01T04:49:54.939Z,17.17
2019-03-01T04:52:44.690Z,18.83
2019-03-01T04:55:22.931Z,17.47
2019-03-01T04:57:54.781Z,18.50
2019-03-01T05:00:27.858Z,17.80
2019-03-01T05:03:01.301Z,17.83
2019-03-01T05:05:33.163Z,17.50
2019-03-01T05:08:05.089Z,18.70
2019-03-01T05:10:36.904Z,16.80
2019-03-01T05:13:08.740Z,17.50
2019-03-01T05:15:40.552Z,17.80
2019-03-01T05:18:12.416Z,17.90
2019-03-01T05:20:44.205Z,17.47
2019-03-01T05:23:16.041Z,16.93
2019-03-01T05:25:47.892Z,16.83
2019-03-01T05:28:19.728Z,17.90
2019-03-01T05:30:51.603Z,18.13
2019-03-01T05:33:24.315Z,16.47
2019-03-01T05:35:56.139Z,17.37
2019-03-01T05:38:27.968Z,18.80
2019-03-01T05:40:59.858Z,19.23
2019-03-01T05:43:31.693Z,19.57
2019-03-01T05:46:03.618Z,19.83
2019-03-01T05:48:35.455Z,19.57
2019-03-01T05:51:07.371Z,21.37
2019-03-01T05:53:39.254Z,22.20
2019-03-01T05:56:11.104Z,21.80
2019-03-01T05:59:07.191Z,21.83
2019-03-01T06:01:49.821Z,21.87
2019-03-01T06:04:33.840Z,23.27
2019-03-01T06:08:04.933Z,21.27
2019-03-01T06:11:02.615Z,22.70
2019-03-01T06:14:35.094Z,22.57
2019-03-01T06:18:00.649Z,22.73
2019-03-01T06:21:14.875Z,23.00
2019-03-01T06:24:23.222Z,26.07
2019-03-01T06:27:57.586Z,25.80
2019-03-01T06:31:00.835Z,26.07
2019-03-01T06:34:08.643Z,26.57
2019-03-01T06:37:18.989Z,25.83
2019-03-01T06:40:32.413Z,25.63
2019-03-01T06:44:08.858Z,26.43
2019-03-01T06:47:28.215Z,26.40
2019-03-01T06:50:05.539Z,25.90
2019-03-01T06:52:37.368Z,25.37
2019-03-01T06:55:32.027Z,25.23
2019-03-01T06:58:03.833Z,25.53
2019-03-01T07:00:47.310Z,26.87
2019-03-01T07:03:13.595Z,27.33
2019-03-01T07:05:45.536Z,27.73
2019-03-01T07:08:17.404Z,28.50
2019-03-01T07:10:49.296Z,28.10
2019-03-01T07:13:21.296Z,28.03
2019-03-01T07:15:53.148Z,28.80
2019-03-01T07:18:25.019Z,28.57
2019-03-01T07:20:56.910Z,29.83
2019-03-01T07:23:36.570Z,29.60
2019-03-01T07:26:02.364Z,28.87
2019-03-01T07:28:34.183Z,30.90
2019-03-01T07:31:07.092Z,30.43
2019-03-01T07:33:38.974Z,30.87
2019-03-01T07:36:10.795Z,30.73
2019-03-01T07:38:42.623Z,29.70
2019-03-01T07:41:14.524Z,30.67
2019-03-01T07:43:46.378Z,30.63
2019-03-01T07:46:18.392Z,29.97
2019-03-01T07:48:50.258Z,32.00
2019-03-01T07:51:27.020Z,34.07
2019-03-01T07:53:58.750Z,35.70
2019-03-01T07:56:30.580Z,36.70
2019-03-01T07:59:02.459Z,36.57
2019-03-01T08:01:34.286Z,38.83
2019-03-01T08:04:06.109Z,39.63
2019-03-01T08:06:38.043Z,39.67
2019-03-01T08:09:14.348Z,38.57
2019-03-01T08:11:46.257Z,41.07
2019-03-01T08:14:18.114Z,39.37
2019-03-01T08:16:52.615Z,39.87
2019-03-01T08:19:23.700Z,44.03
2019-03-01T08:21:55.577Z,42.60
2019-03-01T08:24:27.551Z,43.53
2019-03-01T08:26:59.564Z,44.77
2019-03-01T08:29:34.046Z,43.30
2019-03-01T08:32:04.998Z,45.73
2019-03-01T08:34:36.861Z,45.97
2019-03-01T08:37:08.733Z,50.37
2019-03-01T08:39:40.783Z,48.50
2019-03-01T08:42:12.694Z,55.67
2019-03-01T08:44:44.520Z,60.63
2019-03-01T08:47:20.325Z,57.57
2019-03-01T08:49:49.889Z,58.93
2019-03-01T08:52:21.754Z,60.43
2019-03-01T08:54:53.637Z,64.27
2019-03-01T08:57:26.605Z,59.80
2019-03-01T08:59:59.243Z,63.53
2019-03-01T09:02:31.088Z,61.57
2019-03-01T09:05:05.237Z,60.67
2019-03-01T09:07:36.535Z,59.47
2019-03-01T09:10:10.286Z,60.83
2019-03-01T09:12:42.876Z,57.10
2019-03-01T09:15:15.696Z,55.20
2019-03-01T09:17:47.573Z,57.97
2019-03-01T09:20:19.390Z,56.03
2019-03-01T09:22:51.278Z,57.70
2019-03-01T09:25:23.169Z,59.83
2019-03-01T09:27:55.062Z,56.83
2019-03-01T09:30:27.060Z,56.43
2019-03-01T09:32:58.892Z,55.57
2019-03-01T09:35:43.204Z,56.30
2019-03-01T09:38:14.748Z,56.23
2019-03-01T09:40:46.753Z,58.40
2019-03-01T09:43:18.691Z,56.07
2019-03-01T09:45:50.559Z,55.30
2019-03-01T09:48:22.432Z,55.27
2019-03-01T09:50:54.291Z,50.70
2019-03-01T09:53:26.383Z,47.97
2019-03-01T09:56:00.020Z,46.73
2019-03-01T09:58:32.612Z,45.23
2019-03-01T10:01:14.573Z,45.43
2019-03-01T10:03:47.316Z,40.97
2019-03-01T10:06:19.145Z,40.90
2019-03-01T10:08:50.996Z,40.63
2019-03-01T10:11:22.909Z,40.13
2019-03-01T10:13:54.790Z,39.83
2019-03-01T10:16:26.665Z,37.73
2019-03-01T10:18:58.546Z,35.60
2019-03-01T10:21:30.442Z,35.53
2019-03-01T10:24:02.325Z,34.03
2019-03-01T10:26:34.207Z,35.90
2019-03-01T10:29:06.051Z,36.07
2019-03-01T10:31:37.952Z,36.10
2019-03-01T10:34:09.845Z,36.50
2019-03-01T10:36:41.731Z,37.40
2019-03-01T10:39:16.349Z,35.97
2019-03-01T10:41:48.762Z,36.60
2019-03-01T10:44:20.708Z,38.67
2019-03-01T10:46:52.571Z,39.23
2019-03-01T10:49:24.416Z,39.17
2019-03-01T10:51:56.291Z,39.40
2019-03-01T10:54:28.183Z,37.33
2019-03-01T10:57:00.059Z,36.63
2019-03-01T10:59:33.575Z,34.13
2019-03-01T11:02:05.436Z,32.43
2019-03-01T11:04:37.315Z,32.63
2019-03-01T11:07:09.170Z,32.33
2019-03-01T11:09:41.047Z,32.03
2019-03-01T11:12:12.953Z,32.40
2019-03-01T11:14:44.814Z,32.93
2019-03-01T11:17:16.627Z,32.27
2019-03-01T11:19:48.539Z,30.70
2019-03-01T11:22:20.399Z,31.67
2019-03-01T11:24:52.303Z,31.67
2019-03-01T11:27:24.097Z,32.47
2019-03-01T11:29:55.959Z,32.00
2019-03-01T11:32:28.782Z,30.03
2019-03-01T11:35:00.807Z,32.20
2019-03-01T11:37:33.537Z,30.20
2019-03-01T11:40:08.658Z,30.50
2019-03-01T11:42:40.720Z,30.90
2019-03-01T11:45:12.769Z,31.03
2019-03-01T11:47:45.600Z,31.83
2019-03-01T11:50:20.425Z,31.20
2019-03-01T11:52:52.276Z,31.27
2019-03-01T11:55:24.361Z,30.37
2019-03-01T11:57:56.279Z,31.70
2019-03-01T12:00:28.133Z,29.97
2019-03-01T12:03:00.080Z,31.90
2019-03-01T12:05:31.975Z,30.53
2019-03-01T12:08:03.824Z,31.33
2019-03-01T12:10:35.657Z,30.67
2019-03-01T12:13:07.521Z,31.63
2019-03-01T12:15:39.405Z,30.53
2019-03-01T12:18:11.281Z,30.00
2019-03-01T12:20:43.155Z,30.50
2019-03-01T12:23:15.070Z,28.97
2019-03-01T12:25:46.890Z,28.43
2019-03-01T12:28:18.811Z,22.83
2019-03-01T12:30:51.544Z,19.13
2019-03-01T12:33:23.425Z,18.23
2019-03-01T12:35:55.257Z,18.70
2019-03-01T12:38:27.155Z,17.87
2019-03-01T12:40:59.082Z,18.73
2019-03-01T12:43:30.966Z,16.07
2019-03-01T12:46:02.965Z,13.87
2019-03-01T12:48:34.844Z,12.10
2019-03-01T12:51:06.770Z,12.40
2019-03-01T12:53:38.652Z,12.27
2019-03-01T12:56:10.526Z,11.63
2019-03-01T12:58:42.381Z,12.13
2019-03-01T13:01:14.291Z,11.37
2019-03-01T13:03:46.116Z,10.97
2019-03-01T13:06:17.987Z,10.20
2019-03-01T13:08:51.587Z,10.63
2019-03-01T13:11:23.458Z,11.13
2019-03-01T13:13:55.301Z,11.43
2019-03-01T13:16:27.437Z,12.00
2019-03-01T13:18:59.333Z,11.40
2019-03-01T13:21:31.199Z,12.70
2019-03-01T13:24:03.069Z,15.13
2019-03-01T13:26:37.678Z,13.47
2019-03-01T13:29:08.496Z,13.23
2019-03-01T13:31:40.355Z,13.50
2019-03-01T13:34:13.864Z,13.73
2019-03-01T13:36:45.769Z,12.80
2019-03-01T13:39:17.619Z,13.60
2019-03-01T13:41:49.410Z,14.13
2019-03-01T13:44:21.315Z,13.33
2019-03-01T13:46:53.175Z,12.70
2019-03-01T13:49:26.799Z,12.77
2019-03-01T13:51:58.621Z,13.10
2019-03-01T13:54:30.494Z,11.60
2019-03-01T13:57:02.524Z,10.17
2019-03-01T13:59:37.489Z,10.10
2019-03-01T14:02:08.508Z,9.93
2019-03-01T14:04:41.358Z,10.13
2019-03-01T14:07:13.266Z,10.50
2019-03-01T14:09:45.288Z,9.77
2019-03-01T14:12:17.122Z,9.50
2019-03-01T14:14:49.017Z,10.00
2019-03-01T14:17:21.090Z,9.43
2019-03-01T14:19:54.496Z,9.97
2019-03-01T14:22:26.380Z,9.40
2019-03-01T14:24:58.239Z,10.13
2019-03-01T14:27:30.428Z,8.83
2019-03-01T14:30:02.367Z,10.70
2019-03-01T14:32:34.313Z,11.20
2019-03-01T14:35:06.412Z,10.20
2019-03-01T14:37:38.304Z,10.33
2019-03-01T14:40:12.228Z,11.30
2019-03-01T14:42:47.463Z,10.57
2019-03-01T14:45:21.013Z,11.40
2019-03-01T14:47:53.162Z,11.90
2019-03-01T14:50:29.957Z,11.13
2019-03-01T14:53:00.304Z,12.90
2019-03-01T14:55:39.325Z,11.73
2019-03-01T14:58:37.331Z,11.73
2019-03-01T15:01:35.162Z,12.53
2019-03-01T15:04:07.096Z,12.17
2019-03-01T15:06:38.935Z,11.93
2019-03-01T15:09:11.610Z,12.37
2019-03-01T15:11:44.331Z,13.90
2019-03-01T15:14:17.156Z,14.00
2019-03-01T15:16:49.061Z,15.67
2019-03-01T15:19:20.907Z,14.80
2019-03-01T15:21:52.941Z,14.07
2019-03-01T15:24:24.840Z,14.80
2019-03-01T15:27:00.066Z,15.90
2019-03-01T15:29:32.199Z,16.63
2019-03-01T15:32:04.023Z,15.33
2019-03-01T15:34:35.910Z,15.30
2019-03-01T15:37:07.823Z,14.00
2019-03-01T15:39:39.731Z,14.07
2019-03-01T15:42:14.327Z,13.80
2019-03-01T15:44:45.193Z,12.93
2019-03-01T15:47:17.104Z,13.07
2019-03-01T15:49:51.378Z,13.07
2019-03-01T15:52:22.540Z,11.83
2019-03-01T15:54:54.449Z,12.20
2019-03-01T15:57:26.382Z,12.20
2019-03-01T15:59:58.270Z,11.40
2019-03-01T16:02:30.232Z,12.63
2019-03-01T16:05:02.143Z,13.00
2019-03-01T16:07:34.082Z,12.33
2019-03-01T16:10:07.187Z,12.77
2019-03-01T16:12:39.133Z,11.83
2019-03-01T16:15:12.858Z,13.30
2019-03-01T16:17:44.845Z,12.30
2019-03-01T16:20:16.740Z,12.03
2019-03-01T16:22:51.022Z,12.13
2019-03-01T16:25:22.467Z,11.40
2019-03-01T16:27:55.152Z,10.87
2019-03-01T16:30:27.123Z,11.70
2019-03-01T16:32:59.013Z,11.80
2019-03-01T16:35:30.881Z,12.13
2019-03-01T16:38:03.246Z,11.13
2019-03-01T16:40:35.210Z,11.20
2019-03-01T16:43:07.100Z,10.23
2019-03-01T16:45:38.963Z,10.97
2019-03-01T16:48:13.587Z,10.67
2019-03-01T16:50:45.041Z,10.53
2019-03-01T16:53:16.922Z,10.57
2019-03-01T16:55:50.457Z,9.73
2019-03-01T16:58:24.454Z,9.70
2019-03-01T17:00:56.124Z,8.93
2019-03-01T17:03:28.092Z,8.63
2019-03-01T17:05:59.976Z,9.10
2019-03-01T17:08:31.892Z,8.57
2019-03-01T17:11:05.783Z,7.87
2019-03-01T17:13:37.364Z,8.67
2019-03-01T17:16:09.250Z,8.37
2019-03-01T17:18:41.150Z,8.03
2019-03-01T17:21:15.891Z,8.27
2019-03-01T17:23:46.515Z,7.70
2019-03-01T17:26:18.514Z,7.70
2019-03-01T17:28:50.373Z,7.40
2019-03-01T17:31:23.161Z,7.20
2019-03-01T17:33:55.880Z,6.57
2019-03-01T17:36:27.734Z,7.00
2019-03-01T17:39:20.138Z,6.70
2019-03-01T17:41:51.843Z,6.73
2019-03-01T17:44:24.757Z,6.60
2019-03-01T17:46:56.650Z,6.70
2019-03-01T17:49:29.710Z,6.83
2019-03-01T17:52:02.128Z,6.50
2019-03-01T17:54:34.093Z,7.50
2019-03-01T17:57:06.037Z,7.50
2019-03-01T17:59:37.896Z,8.07
2019-03-01T18:02:12.084Z,7.57
2019-03-01T18:04:43.317Z,8.27
2019-03-01T18:07:15.198Z,7.23
2019-03-01T18:09:47.172Z,7.20
2019-03-01T18:12:20.604Z,5.67
2019-03-01T18:14:52.660Z,5.37
2019-03-01T18:17:24.549Z,5.13
2019-03-01T18:19:58.759Z,5.27
2019-03-01T18:22:30.096Z,5.40
2019-03-01T18:25:02.128Z,6.63
2019-03-01T18:27:33.957Z,6.80
2019-03-01T18:30:16.125Z,7.00
2019-03-01T18:32:46.295Z,6.13
2019-03-01T18:35:18.225Z,5.80
2019-03-01T18:37:51.548Z,5.33
2019-03-01T18:40:23.681Z,5.07
2019-03-01T18:42:55.046Z,5.10
2019-03-01T18:45:26.400Z,5.23
2019-03-01T18:47:57.689Z,5.70
2019-03-01T18:50:32.275Z,9.03
2019-03-01T18:53:04.439Z,6.10
2019-03-01T18:55:36.266Z,5.87
2019-03-01T18:58:10.539Z,8.73
2019-03-01T19:00:42.284Z,5.73
2019-03-01T19:03:14.686Z,5.40
2019-03-01T19:05:46.634Z,5.07
2019-03-01T19:08:18.493Z,5.10
2019-03-01T19:10:54.201Z,5.03
2019-03-01T19:13:25.589Z,5.63
2019-03-01T19:15:57.798Z,6.33
2019-03-01T19:18:29.631Z,7.47
2019-03-01T19:21:01.470Z,7.03
2019-03-01T19:23:33.392Z,7.40
2019-03-01T19:26:05.215Z,7.20
2019-03-01T19:28:37.051Z,6.17
2019-03-01T19:31:08.911Z,5.63
2019-03-01T19:33:41.726Z,6.40
2019-03-01T19:36:13.688Z,5.90
2019-03-01T19:38:46.473Z,6.33
2019-03-01T19:41:20.048Z,5.93
2019-03-01T19:43:57.461Z,6.27
2019-03-01T19:46:26.607Z,6.40
2019-03-01T19:48:58.603Z,5.43
2019-03-01T19:51:33.800Z,5.37
2019-03-01T19:54:04.082Z,5.30
2019-03-01T19:56:35.961Z,5.40
2019-03-01T19:59:07.833Z,6.00
2019-03-01T20:01:39.690Z,7.40
2019-03-01T20:04:11.555Z,7.60
2019-03-01T20:06:44.473Z,7.80
2019-03-01T20:09:16.374Z,7.60
2019-03-01T20:11:49.289Z,7.63
2019-03-01T20:14:21.202Z,8.00
2019-03-01T20:16:54.881Z,7.50
2019-03-01T20:19:26.711Z,7.77
2019-03-01T20:21:58.592Z,9.33
2019-03-01T20:24:30.633Z,9.60
2019-03-01T20:27:03.074Z,9.73
2019-03-01T20:29:35.729Z,9.40
2019-03-01T20:32:07.601Z,10.00
2019-03-01T20:34:39.497Z,11.70
2019-03-01T20:37:11.445Z,11.60
2019-03-01T20:39:43.337Z,11.30
2019-03-01T20:42:17.763Z,11.43
2019-03-01T20:44:50.280Z,11.43
2019-03-01T20:47:23.090Z,11.87
2019-03-01T20:49:54.994Z,12.23
2019-03-01T20:52:27.028Z,13.00
2019-03-01T20:55:00.589Z,12.50
2019-03-01T20:57:32.789Z,12.27
2019-03-01T21:00:05.002Z,11.00
2019-03-01T21:02:36.854Z,10.93
2019-03-01T21:05:09.778Z,11.43
2019-03-01T21:07:41.743Z,10.80
2019-03-01T21:10:21.831Z,10.53
2019-03-01T21:12:53.789Z,9.67
2019-03-01T21:15:25.692Z,11.40
2019-03-01T21:17:58.661Z,11.10
2019-03-01T21:20:30.779Z,12.23
2019-03-01T21:23:02.638Z,14.23
2019-03-01T21:25:35.896Z,15.27
2019-03-01T21:28:08.240Z,15.83
2019-03-01T21:30:41.097Z,14.90
2019-03-01T21:33:12.942Z,14.57
2019-03-01T21:35:47.881Z,15.33
2019-03-01T21:38:18.480Z,13.83
2019-03-01T21:40:50.365Z,14.80
2019-03-01T21:43:22.281Z,13.53
2019-03-01T21:45:55.492Z,13.47
2019-03-01T21:48:27.748Z,14.13
2019-03-01T21:50:59.594Z,13.33
2019-03-01T21:53:31.512Z,13.63
2019-03-01T21:56:04.585Z,13.33
2019-03-01T21:58:38.587Z,12.77
2019-03-01T22:01:10.660Z,13.17
2019-03-01T22:03:42.523Z,12.13
2019-03-01T22:06:14.398Z,12.20
2019-03-01T22:08:48.744Z,10.87
2019-03-01T22:11:20.937Z,10.10
2019-03-01T22:13:52.960Z,9.30
2019-03-01T22:16:24.838Z,9.27
2019-03-01T22:18:58.747Z,8.53
2019-03-01T22:21:30.315Z,7.33
2019-03-01T22:24:02.168Z,7.20
2019-03-01T22:26:34.005Z,7.33
2019-03-01T22:29:08.815Z,6.63
2019-03-01T22:31:39.774Z,6.60
2019-03-01T22:34:11.737Z,6.43
2019-03-01T22:36:43.564Z,6.20
2019-03-01T22:39:16.619Z,5.73
2019-03-01T22:41:48.984Z,5.67
2019-03-01T22:44:20.862Z,6.00
2019-03-01T22:46:52.757Z,5.83
2019-03-01T22:49:24.653Z,6.37
2019-03-01T22:51:56.538Z,6.30
2019-03-01T22:54:28.392Z,6.60
2019-03-01T22:57:00.300Z,7.90
2019-03-01T22:59:32.159Z,7.90
2019-03-01T23:02:08.062Z,8.87
2019-03-01T23:04:40.067Z,7.77
2019-03-01T23:07:11.931Z,7.87
2019-03-01T23:09:46.525Z,8.20
2019-03-01T23:12:17.320Z,7.40
2019-03-01T23:14:49.171Z,7.20
2019-03-01T23:17:21.008Z,7.57
2019-03-01T23:19:52.901Z,7.40
2019-03-01T23:22:24.847Z,7.20
2019-03-01T23:24:56.711Z,7.20
2019-03-01T23:27:31.672Z,6.47
2019-03-01T23:30:02.138Z,6.67
2019-03-01T23:32:34.004Z,6.50
2019-03-01T23:35:05.862Z,6.57
2019-03-01T23:37:38.841Z,5.87
2019-03-01T23:40:11.305Z,6.20
2019-03-01T23:42:43.296Z,6.17
2019-03-01T23:45:17.431Z,6.80
2019-03-01T23:47:48.749Z,6.23
2019-03-01T23:50:20.593Z,6.00
2019-03-01T23:52:54.916Z,6.40
2019-03-01T23:55:26.413Z,6.63
2019-03-01T23:58:06.281Z,6.70
